sensor_id;sensor_type;location;lat;lon;timestamp;P1;durP1;ratioP1;P2;durP2;ratioP2
9968;SDS011;5025;48.890;9.278;2023-05-10T00:01:49;1.30;;;1.20;;
9968;SDS011;5025;48.890;9.278;2023-05-10T00:04:15;1.40;;;1.40;;
9968;SDS011;5025;48.890;9.278;2023-05-10T00:06:40;1.20;;;1.13;;
9968;SDS011;5025;48.890;9.278;2023-05-10T00:09:05;1.20;;;1.07;;
9968;SDS011;5025;48.890;9.278;2023-05-10T00:11:31;1.53;;;0.90;;
9968;SDS011;5025;48.890;9.278;2023-05-10T00:13:57;0.80;;;0.80;;
9968;SDS011;5025;48.890;9.278;2023-05-10T00:16:22;1.80;;;0.67;;
9968;SDS011;5025;48.890;9.278;2023-05-10T00:18:47;1.20;;;0.80;;
9968;SDS011;5025;48.890;9.278;2023-05-10T00:21:12;0.87;;;0.70;;
9968;SDS011;5025;48.890;9.278;2023-05-10T00:23:38;0.47;;;0.47;;
9968;SDS011;5025;48.890;9.278;2023-05-10T00:26:03;0.40;;;0.40;;
9968;SDS011;5025;48.890;9.278;2023-05-10T00:28:28;0.57;;;0.50;;
9968;SDS011;5025;48.890;9.278;2023-05-10T00:30:54;0.30;;;0.30;;
9968;SDS011;5025;48.890;9.278;2023-05-10T00:33:20;0.40;;;0.40;;
9968;SDS011;5025;48.890;9.278;2023-05-10T00:35:45;0.30;;;0.30;;
9968;SDS011;5025;48.890;9.278;2023-05-10T00:38:10;0.73;;;0.30;;
9968;SDS011;5025;48.890;9.278;2023-05-10T00:40:36;2.20;;;0.33;;
9968;SDS011;5025;48.890;9.278;2023-05-10T00:43:04;0.23;;;0.23;;
9968;SDS011;5025;48.890;9.278;2023-05-10T00:45:30;0.40;;;0.40;;
9968;SDS011;5025;48.890;9.278;2023-05-10T00:48:01;0.87;;;0.40;;
9968;SDS011;5025;48.890;9.278;2023-05-10T00:50:27;0.63;;;0.40;;
9968;SDS011;5025;48.890;9.278;2023-05-10T00:52:53;0.33;;;0.33;;
9968;SDS011;5025;48.890;9.278;2023-05-10T00:55:18;0.40;;;0.40;;
9968;SDS011;5025;48.890;9.278;2023-05-10T00:57:44;0.20;;;0.20;;
9968;SDS011;5025;48.890;9.278;2023-05-10T01:00:09;0.20;;;0.20;;
9968;SDS011;5025;48.890;9.278;2023-05-10T01:02:36;0.70;;;0.30;;
9968;SDS011;5025;48.890;9.278;2023-05-10T01:05:01;0.50;;;0.40;;
9968;SDS011;5025;48.890;9.278;2023-05-10T01:07:28;0.40;;;0.40;;
9968;SDS011;5025;48.890;9.278;2023-05-10T01:09:53;0.20;;;0.20;;
9968;SDS011;5025;48.890;9.278;2023-05-10T01:12:19;0.50;;;0.43;;
9968;SDS011;5025;48.890;9.278;2023-05-10T01:14:44;0.30;;;0.30;;
9968;SDS011;5025;48.890;9.278;2023-05-10T01:17:10;0.33;;;0.33;;
9968;SDS011;5025;48.890;9.278;2023-05-10T01:19:37;0.40;;;0.40;;
9968;SDS011;5025;48.890;9.278;2023-05-10T01:24:46;0.37;;;0.37;;
9968;SDS011;5025;48.890;9.278;2023-05-10T01:27:20;0.40;;;0.40;;
9968;SDS011;5025;48.890;9.278;2023-05-10T01:32:36;0.70;;;0.70;;
9968;SDS011;5025;48.890;9.278;2023-05-10T01:35:10;0.70;;;0.70;;
9968;SDS011;5025;48.890;9.278;2023-05-10T01:37:50;1.30;;;0.60;;
9968;SDS011;5025;48.890;9.278;2023-05-10T01:40:23;0.70;;;0.70;;
9968;SDS011;5025;48.890;9.278;2023-05-10T01:43:00;0.80;;;0.80;;
9968;SDS011;5025;48.890;9.278;2023-05-10T01:45:39;0.80;;;0.80;;
9968;SDS011;5025;48.890;9.278;2023-05-10T01:48:10;0.70;;;0.70;;
9968;SDS011;5025;48.890;9.278;2023-05-10T01:50:38;0.97;;;0.97;;
9968;SDS011;5025;48.890;9.278;2023-05-10T01:53:08;1.10;;;1.10;;
9968;SDS011;5025;48.890;9.278;2023-05-10T01:55:36;1.00;;;1.00;;
9968;SDS011;5025;48.890;9.278;2023-05-10T01:58:18;0.90;;;0.90;;
9968;SDS011;5025;48.890;9.278;2023-05-10T02:00:55;1.03;;;1.03;;
9968;SDS011;5025;48.890;9.278;2023-05-10T02:03:23;1.00;;;1.00;;
9968;SDS011;5025;48.890;9.278;2023-05-10T02:05:51;0.97;;;0.97;;
9968;SDS011;5025;48.890;9.278;2023-05-10T02:08:18;1.00;;;1.00;;
9968;SDS011;5025;48.890;9.278;2023-05-10T02:10:45;1.10;;;1.10;;
9968;SDS011;5025;48.890;9.278;2023-05-10T02:13:12;0.80;;;0.80;;
9968;SDS011;5025;48.890;9.278;2023-05-10T02:15:40;1.47;;;1.10;;
9968;SDS011;5025;48.890;9.278;2023-05-10T02:18:07;0.90;;;0.90;;
9968;SDS011;5025;48.890;9.278;2023-05-10T02:20:34;1.07;;;0.90;;
9968;SDS011;5025;48.890;9.278;2023-05-10T02:23:00;0.90;;;0.90;;
9968;SDS011;5025;48.890;9.278;2023-05-10T02:25:28;1.10;;;1.10;;
9968;SDS011;5025;48.890;9.278;2023-05-10T02:27:55;0.90;;;0.90;;
9968;SDS011;5025;48.890;9.278;2023-05-10T02:30:22;1.10;;;1.10;;
9968;SDS011;5025;48.890;9.278;2023-05-10T02:32:48;1.00;;;0.87;;
9968;SDS011;5025;48.890;9.278;2023-05-10T02:35:15;1.00;;;1.00;;
9968;SDS011;5025;48.890;9.278;2023-05-10T02:37:41;0.93;;;0.93;;
9968;SDS011;5025;48.890;9.278;2023-05-10T02:40:08;1.20;;;1.20;;
9968;SDS011;5025;48.890;9.278;2023-05-10T02:42:36;0.90;;;0.90;;
9968;SDS011;5025;48.890;9.278;2023-05-10T02:45:13;0.93;;;0.93;;
9968;SDS011;5025;48.890;9.278;2023-05-10T02:47:42;1.00;;;1.00;;
9968;SDS011;5025;48.890;9.278;2023-05-10T02:50:08;1.00;;;1.00;;
9968;SDS011;5025;48.890;9.278;2023-05-10T02:52:42;1.03;;;1.03;;
9968;SDS011;5025;48.890;9.278;2023-05-10T02:55:12;2.47;;;1.10;;
9968;SDS011;5025;48.890;9.278;2023-05-10T02:57:46;0.90;;;0.90;;
9968;SDS011;5025;48.890;9.278;2023-05-10T03:00:15;1.00;;;1.00;;
9968;SDS011;5025;48.890;9.278;2023-05-10T03:02:41;1.50;;;1.10;;
9968;SDS011;5025;48.890;9.278;2023-05-10T03:05:06;1.00;;;1.00;;
9968;SDS011;5025;48.890;9.278;2023-05-10T03:07:32;1.00;;;1.00;;
9968;SDS011;5025;48.890;9.278;2023-05-10T03:09:58;0.90;;;0.90;;
9968;SDS011;5025;48.890;9.278;2023-05-10T03:20:18;1.00;;;1.00;;
9968;SDS011;5025;48.890;9.278;2023-05-10T03:22:58;0.93;;;0.93;;
9968;SDS011;5025;48.890;9.278;2023-05-10T03:25:27;1.33;;;1.30;;
9968;SDS011;5025;48.890;9.278;2023-05-10T03:27:54;1.00;;;1.00;;
9968;SDS011;5025;48.890;9.278;2023-05-10T03:30:22;1.10;;;1.10;;
9968;SDS011;5025;48.890;9.278;2023-05-10T03:32:47;1.20;;;1.20;;
9968;SDS011;5025;48.890;9.278;2023-05-10T03:35:13;1.20;;;1.20;;
9968;SDS011;5025;48.890;9.278;2023-05-10T03:37:39;1.20;;;1.10;;
9968;SDS011;5025;48.890;9.278;2023-05-10T03:40:04;1.50;;;1.50;;
9968;SDS011;5025;48.890;9.278;2023-05-10T03:42:31;1.40;;;1.40;;
9968;SDS011;5025;48.890;9.278;2023-05-10T03:44:56;1.30;;;1.30;;
9968;SDS011;5025;48.890;9.278;2023-05-10T03:47:21;1.70;;;1.60;;
9968;SDS011;5025;48.890;9.278;2023-05-10T03:49:47;1.60;;;1.60;;
9968;SDS011;5025;48.890;9.278;2023-05-10T03:52:12;1.50;;;1.50;;
9968;SDS011;5025;48.890;9.278;2023-05-10T03:54:37;1.67;;;1.57;;
9968;SDS011;5025;48.890;9.278;2023-05-10T03:57:03;1.50;;;1.50;;
9968;SDS011;5025;48.890;9.278;2023-05-10T03:59:28;2.50;;;1.60;;
9968;SDS011;5025;48.890;9.278;2023-05-10T04:01:54;1.40;;;1.40;;
9968;SDS011;5025;48.890;9.278;2023-05-10T04:04:19;1.40;;;1.40;;
9968;SDS011;5025;48.890;9.278;2023-05-10T04:06:45;1.70;;;1.60;;
9968;SDS011;5025;48.890;9.278;2023-05-10T04:09:11;1.70;;;1.70;;
9968;SDS011;5025;48.890;9.278;2023-05-10T04:11:36;1.83;;;1.73;;
9968;SDS011;5025;48.890;9.278;2023-05-10T04:14:01;2.00;;;1.90;;
9968;SDS011;5025;48.890;9.278;2023-05-10T04:16:27;3.13;;;2.10;;
9968;SDS011;5025;48.890;9.278;2023-05-10T04:18:52;1.97;;;1.87;;
9968;SDS011;5025;48.890;9.278;2023-05-10T04:21:17;2.10;;;2.00;;
9968;SDS011;5025;48.890;9.278;2023-05-10T04:23:43;2.20;;;2.10;;
9968;SDS011;5025;48.890;9.278;2023-05-10T04:26:08;2.70;;;1.70;;
9968;SDS011;5025;48.890;9.278;2023-05-10T04:28:33;1.70;;;1.70;;
9968;SDS011;5025;48.890;9.278;2023-05-10T04:31:05;1.70;;;1.70;;
9968;SDS011;5025;48.890;9.278;2023-05-10T04:33:32;1.73;;;1.73;;
9968;SDS011;5025;48.890;9.278;2023-05-10T04:35:58;1.97;;;1.90;;
9968;SDS011;5025;48.890;9.278;2023-05-10T04:38:23;1.70;;;1.70;;
9968;SDS011;5025;48.890;9.278;2023-05-10T04:40:48;2.23;;;2.13;;
9968;SDS011;5025;48.890;9.278;2023-05-10T04:43:13;2.00;;;1.90;;
9968;SDS011;5025;48.890;9.278;2023-05-10T04:45:39;2.10;;;2.00;;
9968;SDS011;5025;48.890;9.278;2023-05-10T04:48:04;1.70;;;1.70;;
9968;SDS011;5025;48.890;9.278;2023-05-10T04:50:30;1.70;;;1.70;;
9968;SDS011;5025;48.890;9.278;2023-05-10T04:52:55;1.90;;;1.80;;
9968;SDS011;5025;48.890;9.278;2023-05-10T04:55:20;2.10;;;2.00;;
9968;SDS011;5025;48.890;9.278;2023-05-10T04:57:46;1.73;;;1.67;;
9968;SDS011;5025;48.890;9.278;2023-05-10T05:00:11;1.77;;;1.67;;
9968;SDS011;5025;48.890;9.278;2023-05-10T05:02:37;1.70;;;1.70;;
9968;SDS011;5025;48.890;9.278;2023-05-10T05:05:02;2.00;;;1.90;;
9968;SDS011;5025;48.890;9.278;2023-05-10T05:07:27;1.80;;;1.70;;
9968;SDS011;5025;48.890;9.278;2023-05-10T05:09:53;1.80;;;1.70;;
9968;SDS011;5025;48.890;9.278;2023-05-10T05:12:18;1.87;;;1.77;;
9968;SDS011;5025;48.890;9.278;2023-05-10T05:14:43;1.70;;;1.60;;
9968;SDS011;5025;48.890;9.278;2023-05-10T05:17:08;1.97;;;1.87;;
9968;SDS011;5025;48.890;9.278;2023-05-10T05:19:33;1.87;;;1.80;;
9968;SDS011;5025;48.890;9.278;2023-05-10T05:21:59;2.40;;;2.20;;
9968;SDS011;5025;48.890;9.278;2023-05-10T05:24:24;2.67;;;2.47;;
9968;SDS011;5025;48.890;9.278;2023-05-10T05:26:49;2.20;;;2.10;;
9968;SDS011;5025;48.890;9.278;2023-05-10T05:29:14;2.50;;;2.30;;
9968;SDS011;5025;48.890;9.278;2023-05-10T05:31:40;2.60;;;2.40;;
9968;SDS011;5025;48.890;9.278;2023-05-10T05:34:05;2.53;;;2.33;;
9968;SDS011;5025;48.890;9.278;2023-05-10T05:36:30;2.10;;;2.00;;
9968;SDS011;5025;48.890;9.278;2023-05-10T05:38:56;1.83;;;1.73;;
9968;SDS011;5025;48.890;9.278;2023-05-10T05:41:22;1.97;;;1.80;;
9968;SDS011;5025;48.890;9.278;2023-05-10T05:43:48;2.27;;;2.07;;
9968;SDS011;5025;48.890;9.278;2023-05-10T05:46:14;2.20;;;2.10;;
9968;SDS011;5025;48.890;9.278;2023-05-10T05:48:39;2.30;;;2.20;;
9968;SDS011;5025;48.890;9.278;2023-05-10T05:51:04;2.47;;;2.33;;
9968;SDS011;5025;48.890;9.278;2023-05-10T05:53:30;2.67;;;2.50;;
9968;SDS011;5025;48.890;9.278;2023-05-10T05:55:56;2.50;;;2.40;;
9968;SDS011;5025;48.890;9.278;2023-05-10T05:58:22;3.00;;;2.30;;
9968;SDS011;5025;48.890;9.278;2023-05-10T06:00:48;2.40;;;2.30;;
9968;SDS011;5025;48.890;9.278;2023-05-10T06:03:14;2.20;;;2.10;;
9968;SDS011;5025;48.890;9.278;2023-05-10T06:05:39;2.27;;;1.97;;
9968;SDS011;5025;48.890;9.278;2023-05-10T06:08:04;2.60;;;2.40;;
9968;SDS011;5025;48.890;9.278;2023-05-10T06:10:30;2.77;;;2.50;;
9968;SDS011;5025;48.890;9.278;2023-05-10T06:12:55;2.43;;;2.27;;
9968;SDS011;5025;48.890;9.278;2023-05-10T06:15:21;2.27;;;2.17;;
9968;SDS011;5025;48.890;9.278;2023-05-10T06:17:46;2.40;;;2.20;;
9968;SDS011;5025;48.890;9.278;2023-05-10T06:20:14;2.33;;;2.13;;
9968;SDS011;5025;48.890;9.278;2023-05-10T06:22:39;3.43;;;2.40;;
9968;SDS011;5025;48.890;9.278;2023-05-10T06:25:04;2.50;;;2.30;;
9968;SDS011;5025;48.890;9.278;2023-05-10T06:27:30;2.30;;;2.20;;
9968;SDS011;5025;48.890;9.278;2023-05-10T06:29:55;2.30;;;2.10;;
9968;SDS011;5025;48.890;9.278;2023-05-10T06:32:20;2.33;;;2.13;;
9968;SDS011;5025;48.890;9.278;2023-05-10T06:34:46;2.27;;;2.00;;
9968;SDS011;5025;48.890;9.278;2023-05-10T06:37:11;2.10;;;2.00;;
9968;SDS011;5025;48.890;9.278;2023-05-10T06:39:36;2.53;;;2.37;;
9968;SDS011;5025;48.890;9.278;2023-05-10T06:42:02;2.43;;;2.23;;
9968;SDS011;5025;48.890;9.278;2023-05-10T06:44:27;2.37;;;2.23;;
9968;SDS011;5025;48.890;9.278;2023-05-10T06:46:52;3.07;;;2.20;;
9968;SDS011;5025;48.890;9.278;2023-05-10T06:49:20;2.30;;;2.10;;
9968;SDS011;5025;48.890;9.278;2023-05-10T06:51:45;2.30;;;2.03;;
9968;SDS011;5025;48.890;9.278;2023-05-10T06:54:10;2.27;;;2.07;;
9968;SDS011;5025;48.890;9.278;2023-05-10T06:56:35;1.90;;;1.80;;
9968;SDS011;5025;48.890;9.278;2023-05-10T06:59:01;2.13;;;2.03;;
9968;SDS011;5025;48.890;9.278;2023-05-10T07:01:26;2.20;;;2.00;;
9968;SDS011;5025;48.890;9.278;2023-05-10T07:03:51;2.77;;;1.90;;
9968;SDS011;5025;48.890;9.278;2023-05-10T07:06:17;2.03;;;1.80;;
9968;SDS011;5025;48.890;9.278;2023-05-10T07:08:42;1.90;;;1.80;;
9968;SDS011;5025;48.890;9.278;2023-05-10T07:11:07;1.77;;;1.67;;
9968;SDS011;5025;48.890;9.278;2023-05-10T07:13:33;2.20;;;2.10;;
9968;SDS011;5025;48.890;9.278;2023-05-10T07:15:59;2.20;;;2.10;;
9968;SDS011;5025;48.890;9.278;2023-05-10T07:18:25;1.90;;;1.80;;
9968;SDS011;5025;48.890;9.278;2023-05-10T07:20:51;2.20;;;2.10;;
9968;SDS011;5025;48.890;9.278;2023-05-10T07:23:16;1.87;;;1.77;;
9968;SDS011;5025;48.890;9.278;2023-05-10T07:25:44;3.00;;;1.90;;
9968;SDS011;5025;48.890;9.278;2023-05-10T07:28:10;1.63;;;1.53;;
9968;SDS011;5025;48.890;9.278;2023-05-10T07:30:35;1.60;;;1.60;;
9968;SDS011;5025;48.890;9.278;2023-05-10T07:33:01;1.20;;;1.20;;
9968;SDS011;5025;48.890;9.278;2023-05-10T07:35:26;1.67;;;1.53;;
9968;SDS011;5025;48.890;9.278;2023-05-10T07:37:51;1.40;;;1.40;;
9968;SDS011;5025;48.890;9.278;2023-05-10T07:40:17;1.20;;;1.20;;
9968;SDS011;5025;48.890;9.278;2023-05-10T07:42:42;1.47;;;1.47;;
9968;SDS011;5025;48.890;9.278;2023-05-10T07:45:07;1.33;;;1.23;;
9968;SDS011;5025;48.890;9.278;2023-05-10T07:47:33;1.37;;;1.30;;
9968;SDS011;5025;48.890;9.278;2023-05-10T07:49:58;1.23;;;1.23;;
9968;SDS011;5025;48.890;9.278;2023-05-10T07:52:23;1.30;;;1.30;;
9968;SDS011;5025;48.890;9.278;2023-05-10T07:54:49;1.40;;;1.30;;
9968;SDS011;5025;48.890;9.278;2023-05-10T07:57:14;1.40;;;1.30;;
9968;SDS011;5025;48.890;9.278;2023-05-10T07:59:42;1.47;;;1.07;;
9968;SDS011;5025;48.890;9.278;2023-05-10T08:02:07;1.37;;;1.37;;
9968;SDS011;5025;48.890;9.278;2023-05-10T08:04:33;1.20;;;1.20;;
9968;SDS011;5025;48.890;9.278;2023-05-10T08:06:58;1.60;;;1.40;;
9968;SDS011;5025;48.890;9.278;2023-05-10T08:09:23;1.30;;;1.20;;
9968;SDS011;5025;48.890;9.278;2023-05-10T08:11:49;1.60;;;1.20;;
9968;SDS011;5025;48.890;9.278;2023-05-10T08:14:15;1.20;;;1.10;;
9968;SDS011;5025;48.890;9.278;2023-05-10T08:16:40;1.13;;;1.00;;
9968;SDS011;5025;48.890;9.278;2023-05-10T08:19:06;0.80;;;0.80;;
9968;SDS011;5025;48.890;9.278;2023-05-10T08:21:31;1.10;;;1.00;;
9968;SDS011;5025;48.890;9.278;2023-05-10T08:23:56;1.10;;;1.00;;
9968;SDS011;5025;48.890;9.278;2023-05-10T08:26:22;1.23;;;1.13;;
9968;SDS011;5025;48.890;9.278;2023-05-10T08:28:47;0.90;;;0.80;;
9968;SDS011;5025;48.890;9.278;2023-05-10T08:31:13;1.13;;;1.00;;
9968;SDS011;5025;48.890;9.278;2023-05-10T08:33:38;0.80;;;0.80;;
9968;SDS011;5025;48.890;9.278;2023-05-10T08:36:03;1.33;;;0.93;;
9968;SDS011;5025;48.890;9.278;2023-05-10T08:38:29;1.00;;;0.70;;
9968;SDS011;5025;48.890;9.278;2023-05-10T08:40:54;1.30;;;0.60;;
9968;SDS011;5025;48.890;9.278;2023-05-10T08:43:21;0.97;;;0.57;;
9968;SDS011;5025;48.890;9.278;2023-05-10T08:45:50;1.00;;;0.70;;
9968;SDS011;5025;48.890;9.278;2023-05-10T08:48:19;0.93;;;0.80;;
9968;SDS011;5025;48.890;9.278;2023-05-10T08:50:47;0.80;;;0.80;;
9968;SDS011;5025;48.890;9.278;2023-05-10T08:53:13;0.90;;;0.90;;
9968;SDS011;5025;48.890;9.278;2023-05-10T08:55:40;0.70;;;0.70;;
9968;SDS011;5025;48.890;9.278;2023-05-10T08:58:07;1.47;;;0.90;;
9968;SDS011;5025;48.890;9.278;2023-05-10T09:00:33;0.80;;;0.80;;
9968;SDS011;5025;48.890;9.278;2023-05-10T09:02:59;1.00;;;0.67;;
9968;SDS011;5025;48.890;9.278;2023-05-10T09:05:24;0.80;;;0.80;;
9968;SDS011;5025;48.890;9.278;2023-05-10T09:07:50;0.73;;;0.73;;
9968;SDS011;5025;48.890;9.278;2023-05-10T09:10:15;1.70;;;0.80;;
9968;SDS011;5025;48.890;9.278;2023-05-10T09:12:41;1.30;;;0.80;;
9968;SDS011;5025;48.890;9.278;2023-05-10T09:15:08;0.80;;;0.80;;
9968;SDS011;5025;48.890;9.278;2023-05-10T09:17:34;0.83;;;0.80;;
9968;SDS011;5025;48.890;9.278;2023-05-10T09:20:02;0.70;;;0.70;;
9968;SDS011;5025;48.890;9.278;2023-05-10T09:22:29;0.63;;;0.50;;
9968;SDS011;5025;48.890;9.278;2023-05-10T09:25:11;0.60;;;0.60;;
9968;SDS011;5025;48.890;9.278;2023-05-10T09:27:40;0.70;;;0.70;;
9968;SDS011;5025;48.890;9.278;2023-05-10T09:30:09;0.60;;;0.60;;
9968;SDS011;5025;48.890;9.278;2023-05-10T09:32:36;0.70;;;0.70;;
9968;SDS011;5025;48.890;9.278;2023-05-10T09:35:11;1.67;;;0.70;;
9968;SDS011;5025;48.890;9.278;2023-05-10T09:37:39;0.70;;;0.70;;
9968;SDS011;5025;48.890;9.278;2023-05-10T09:40:06;0.87;;;0.87;;
9968;SDS011;5025;48.890;9.278;2023-05-10T09:42:33;0.70;;;0.70;;
9968;SDS011;5025;48.890;9.278;2023-05-10T09:45:03;0.73;;;0.73;;
9968;SDS011;5025;48.890;9.278;2023-05-10T09:47:28;0.53;;;0.53;;
9968;SDS011;5025;48.890;9.278;2023-05-10T09:49:55;0.67;;;0.60;;
9968;SDS011;5025;48.890;9.278;2023-05-10T09:52:27;1.87;;;0.80;;
9968;SDS011;5025;48.890;9.278;2023-05-10T09:54:53;0.60;;;0.60;;
9968;SDS011;5025;48.890;9.278;2023-05-10T09:57:23;2.47;;;0.83;;
9968;SDS011;5025;48.890;9.278;2023-05-10T09:59:49;0.83;;;0.80;;
9968;SDS011;5025;48.890;9.278;2023-05-10T10:02:15;0.73;;;0.70;;
9968;SDS011;5025;48.890;9.278;2023-05-10T10:04:41;0.80;;;0.80;;
9968;SDS011;5025;48.890;9.278;2023-05-10T10:07:07;0.63;;;0.53;;
9968;SDS011;5025;48.890;9.278;2023-05-10T10:09:33;0.80;;;0.80;;
9968;SDS011;5025;48.890;9.278;2023-05-10T10:12:00;2.67;;;1.00;;
9968;SDS011;5025;48.890;9.278;2023-05-10T10:14:26;1.23;;;1.00;;
9968;SDS011;5025;48.890;9.278;2023-05-10T10:16:52;1.27;;;1.10;;
9968;SDS011;5025;48.890;9.278;2023-05-10T10:19:18;1.60;;;0.83;;
9968;SDS011;5025;48.890;9.278;2023-05-10T10:21:44;2.23;;;0.90;;
9968;SDS011;5025;48.890;9.278;2023-05-10T10:24:09;0.70;;;0.70;;
9968;SDS011;5025;48.890;9.278;2023-05-10T10:26:35;2.53;;;0.80;;
9968;SDS011;5025;48.890;9.278;2023-05-10T10:29:25;1.57;;;0.70;;
9968;SDS011;5025;48.890;9.278;2023-05-10T10:34:38;0.93;;;0.93;;
9968;SDS011;5025;48.890;9.278;2023-05-10T10:37:04;0.70;;;0.70;;
9968;SDS011;5025;48.890;9.278;2023-05-10T10:39:31;0.80;;;0.80;;
9968;SDS011;5025;48.890;9.278;2023-05-10T10:41:57;0.70;;;0.70;;
9968;SDS011;5025;48.890;9.278;2023-05-10T10:46:58;1.83;;;0.97;;
9968;SDS011;5025;48.890;9.278;2023-05-10T10:49:23;1.23;;;0.70;;
9968;SDS011;5025;48.890;9.278;2023-05-10T10:54:40;0.70;;;0.60;;
9968;SDS011;5025;48.890;9.278;2023-05-10T10:57:13;0.70;;;0.70;;
9968;SDS011;5025;48.890;9.278;2023-05-10T10:59:42;1.17;;;0.80;;
9968;SDS011;5025;48.890;9.278;2023-05-10T11:02:08;2.13;;;0.93;;
9968;SDS011;5025;48.890;9.278;2023-05-10T11:04:41;0.60;;;0.60;;
9968;SDS011;5025;48.890;9.278;2023-05-10T11:07:17;0.53;;;0.53;;
9968;SDS011;5025;48.890;9.278;2023-05-10T11:09:43;1.27;;;0.63;;
9968;SDS011;5025;48.890;9.278;2023-05-10T11:12:08;1.53;;;0.63;;
9968;SDS011;5025;48.890;9.278;2023-05-10T11:14:33;0.73;;;0.50;;
9968;SDS011;5025;48.890;9.278;2023-05-10T11:16:59;0.50;;;0.50;;
9968;SDS011;5025;48.890;9.278;2023-05-10T11:19:27;1.80;;;0.70;;
9968;SDS011;5025;48.890;9.278;2023-05-10T11:22:11;2.23;;;0.70;;
9968;SDS011;5025;48.890;9.278;2023-05-10T11:24:38;2.00;;;1.00;;
9968;SDS011;5025;48.890;9.278;2023-05-10T11:27:03;0.70;;;0.70;;
9968;SDS011;5025;48.890;9.278;2023-05-10T11:29:30;2.80;;;0.90;;
9968;SDS011;5025;48.890;9.278;2023-05-10T11:31:58;2.20;;;0.90;;
9968;SDS011;5025;48.890;9.278;2023-05-10T11:34:28;3.40;;;0.90;;
9968;SDS011;5025;48.890;9.278;2023-05-10T11:36:55;0.83;;;0.70;;
9968;SDS011;5025;48.890;9.278;2023-05-10T11:39:25;2.17;;;1.07;;
9968;SDS011;5025;48.890;9.278;2023-05-10T11:41:51;1.63;;;0.90;;
9968;SDS011;5025;48.890;9.278;2023-05-10T11:44:17;0.77;;;0.77;;
9968;SDS011;5025;48.890;9.278;2023-05-10T11:46:42;1.03;;;0.90;;
9968;SDS011;5025;48.890;9.278;2023-05-10T11:49:07;2.70;;;0.80;;
9968;SDS011;5025;48.890;9.278;2023-05-10T11:51:33;0.83;;;0.83;;
9968;SDS011;5025;48.890;9.278;2023-05-10T11:54:07;3.20;;;0.90;;
9968;SDS011;5025;48.890;9.278;2023-05-10T11:56:34;1.00;;;0.97;;
9968;SDS011;5025;48.890;9.278;2023-05-10T11:58:59;2.63;;;1.00;;
9968;SDS011;5025;48.890;9.278;2023-05-10T12:01:26;2.33;;;0.90;;
9968;SDS011;5025;48.890;9.278;2023-05-10T12:03:53;1.60;;;1.03;;
9968;SDS011;5025;48.890;9.278;2023-05-10T12:06:20;2.20;;;1.20;;
9968;SDS011;5025;48.890;9.278;2023-05-10T12:08:46;1.30;;;1.20;;
9968;SDS011;5025;48.890;9.278;2023-05-10T12:11:13;1.30;;;1.20;;
9968;SDS011;5025;48.890;9.278;2023-05-10T12:13:40;1.93;;;1.30;;
9968;SDS011;5025;48.890;9.278;2023-05-10T12:16:14;2.27;;;1.40;;
9968;SDS011;5025;48.890;9.278;2023-05-10T12:18:41;1.30;;;1.10;;
9968;SDS011;5025;48.890;9.278;2023-05-10T12:21:10;3.83;;;1.10;;
9968;SDS011;5025;48.890;9.278;2023-05-10T12:23:37;2.53;;;1.27;;
9968;SDS011;5025;48.890;9.278;2023-05-10T12:26:06;1.70;;;1.10;;
9968;SDS011;5025;48.890;9.278;2023-05-10T12:28:33;2.03;;;1.10;;
9968;SDS011;5025;48.890;9.278;2023-05-10T12:30:59;1.90;;;1.10;;
9968;SDS011;5025;48.890;9.278;2023-05-10T12:33:24;2.53;;;1.27;;
9968;SDS011;5025;48.890;9.278;2023-05-10T12:35:51;1.30;;;1.20;;
9968;SDS011;5025;48.890;9.278;2023-05-10T12:38:27;1.33;;;1.00;;
9968;SDS011;5025;48.890;9.278;2023-05-10T12:40:55;3.13;;;1.20;;
9968;SDS011;5025;48.890;9.278;2023-05-10T12:43:21;1.47;;;1.20;;
9968;SDS011;5025;48.890;9.278;2023-05-10T12:45:46;1.73;;;1.07;;
9968;SDS011;5025;48.890;9.278;2023-05-10T12:48:13;3.03;;;1.00;;
9968;SDS011;5025;48.890;9.278;2023-05-10T12:50:39;0.90;;;0.67;;
9968;SDS011;5025;48.890;9.278;2023-05-10T12:53:04;3.03;;;1.00;;
9968;SDS011;5025;48.890;9.278;2023-05-10T12:55:30;3.00;;;1.00;;
9968;SDS011;5025;48.890;9.278;2023-05-10T12:57:55;1.83;;;1.10;;
9968;SDS011;5025;48.890;9.278;2023-05-10T13:00:20;0.80;;;0.80;;
9968;SDS011;5025;48.890;9.278;2023-05-10T13:02:45;1.17;;;1.00;;
9968;SDS011;5025;48.890;9.278;2023-05-10T13:05:11;1.00;;;0.80;;
9968;SDS011;5025;48.890;9.278;2023-05-10T13:07:37;1.73;;;0.93;;
9968;SDS011;5025;48.890;9.278;2023-05-10T13:10:03;1.07;;;0.90;;
9968;SDS011;5025;48.890;9.278;2023-05-10T13:12:28;4.13;;;1.40;;
9968;SDS011;5025;48.890;9.278;2023-05-10T13:14:54;0.97;;;0.90;;
9968;SDS011;5025;48.890;9.278;2023-05-10T13:17:19;1.10;;;1.00;;
9968;SDS011;5025;48.890;9.278;2023-05-10T13:19:44;2.13;;;0.93;;
9968;SDS011;5025;48.890;9.278;2023-05-10T13:22:10;2.00;;;0.90;;
9968;SDS011;5025;48.890;9.278;2023-05-10T13:24:35;1.47;;;0.90;;
9968;SDS011;5025;48.890;9.278;2023-05-10T13:27:00;2.67;;;1.20;;
9968;SDS011;5025;48.890;9.278;2023-05-10T13:29:25;0.90;;;0.83;;
9968;SDS011;5025;48.890;9.278;2023-05-10T13:31:51;2.57;;;1.10;;
9968;SDS011;5025;48.890;9.278;2023-05-10T13:34:16;1.43;;;0.83;;
9968;SDS011;5025;48.890;9.278;2023-05-10T13:36:45;2.00;;;0.90;;
9968;SDS011;5025;48.890;9.278;2023-05-10T13:39:10;1.73;;;0.90;;
9968;SDS011;5025;48.890;9.278;2023-05-10T13:41:35;1.17;;;1.07;;
9968;SDS011;5025;48.890;9.278;2023-05-10T13:44:01;2.23;;;0.90;;
9968;SDS011;5025;48.890;9.278;2023-05-10T13:46:26;1.50;;;0.90;;
9968;SDS011;5025;48.890;9.278;2023-05-10T13:48:52;3.50;;;1.20;;
9968;SDS011;5025;48.890;9.278;2023-05-10T13:51:17;1.77;;;0.90;;
9968;SDS011;5025;48.890;9.278;2023-05-10T13:53:43;1.53;;;0.80;;
9968;SDS011;5025;48.890;9.278;2023-05-10T13:56:08;2.50;;;1.00;;
9968;SDS011;5025;48.890;9.278;2023-05-10T13:58:33;1.33;;;0.80;;
9968;SDS011;5025;48.890;9.278;2023-05-10T14:00:59;1.77;;;0.87;;
9968;SDS011;5025;48.890;9.278;2023-05-10T14:03:25;1.50;;;0.90;;
9968;SDS011;5025;48.890;9.278;2023-05-10T14:05:50;1.37;;;1.00;;
9968;SDS011;5025;48.890;9.278;2023-05-10T14:08:15;0.80;;;0.80;;
9968;SDS011;5025;48.890;9.278;2023-05-10T14:10:40;1.20;;;0.83;;
9968;SDS011;5025;48.890;9.278;2023-05-10T14:13:06;1.17;;;0.90;;
9968;SDS011;5025;48.890;9.278;2023-05-10T14:15:31;0.80;;;0.80;;
9968;SDS011;5025;48.890;9.278;2023-05-10T14:17:56;0.90;;;0.83;;
9968;SDS011;5025;48.890;9.278;2023-05-10T14:20:21;1.53;;;0.90;;
9968;SDS011;5025;48.890;9.278;2023-05-10T14:22:47;1.00;;;0.90;;
9968;SDS011;5025;48.890;9.278;2023-05-10T14:25:12;1.60;;;0.90;;
9968;SDS011;5025;48.890;9.278;2023-05-10T14:27:38;0.93;;;0.90;;
9968;SDS011;5025;48.890;9.278;2023-05-10T14:30:03;1.10;;;1.00;;
9968;SDS011;5025;48.890;9.278;2023-05-10T14:32:29;1.33;;;0.80;;
9968;SDS011;5025;48.890;9.278;2023-05-10T14:34:54;1.53;;;0.90;;
9968;SDS011;5025;48.890;9.278;2023-05-10T14:37:19;1.50;;;0.80;;
9968;SDS011;5025;48.890;9.278;2023-05-10T14:39:45;2.00;;;1.00;;
9968;SDS011;5025;48.890;9.278;2023-05-10T14:42:11;0.80;;;0.80;;
9968;SDS011;5025;48.890;9.278;2023-05-10T14:44:36;2.27;;;1.07;;
9968;SDS011;5025;48.890;9.278;2023-05-10T14:47:02;0.83;;;0.83;;
9968;SDS011;5025;48.890;9.278;2023-05-10T14:49:27;1.83;;;0.80;;
9968;SDS011;5025;48.890;9.278;2023-05-10T14:51:52;0.83;;;0.83;;
9968;SDS011;5025;48.890;9.278;2023-05-10T14:54:18;1.73;;;0.90;;
9968;SDS011;5025;48.890;9.278;2023-05-10T14:56:43;1.53;;;0.73;;
9968;SDS011;5025;48.890;9.278;2023-05-10T14:59:09;1.67;;;1.00;;
9968;SDS011;5025;48.890;9.278;2023-05-10T15:01:34;2.73;;;1.20;;
9968;SDS011;5025;48.890;9.278;2023-05-10T15:04:02;1.57;;;1.10;;
9968;SDS011;5025;48.890;9.278;2023-05-10T15:06:31;1.43;;;0.90;;
9968;SDS011;5025;48.890;9.278;2023-05-10T15:08:57;1.10;;;1.00;;
9968;SDS011;5025;48.890;9.278;2023-05-10T15:11:22;1.67;;;0.97;;
9968;SDS011;5025;48.890;9.278;2023-05-10T15:13:47;0.90;;;0.90;;
9968;SDS011;5025;48.890;9.278;2023-05-10T15:16:12;0.97;;;0.80;;
9968;SDS011;5025;48.890;9.278;2023-05-10T15:18:38;1.37;;;0.83;;
9968;SDS011;5025;48.890;9.278;2023-05-10T15:21:03;2.23;;;1.10;;
9968;SDS011;5025;48.890;9.278;2023-05-10T15:23:28;0.80;;;0.80;;
9968;SDS011;5025;48.890;9.278;2023-05-10T15:25:54;1.83;;;0.70;;
9968;SDS011;5025;48.890;9.278;2023-05-10T15:28:20;2.20;;;0.73;;
9968;SDS011;5025;48.890;9.278;2023-05-10T15:30:45;0.70;;;0.70;;
9968;SDS011;5025;48.890;9.278;2023-05-10T15:33:11;1.40;;;0.63;;